Time;durP1;ratioP1;P1;durP2;ratioP2;P2;SDS_P1;SDS_P2;PMS_P1;PMS_P2;Temp;Humidity;BMP_temperature;BMP_pressure;BME280_temperature;BME280_humidity;BME280_pressure;Samples;Min_cycle;Max_cycle;Signal;HPM_P1;HPM_P2
2021/01/13 00:02:19;;;;;;;0.50;0.50;;;1.10;99.90;;;;;;4829620;29;20291;-84
2021/01/13 00:04:45;;;;;;;0.45;0.45;;;1.10;99.90;;;;;;4823213;29;20208;-84
2021/01/13 00:07:13;;;;;;;0.40;0.40;;;1.10;99.90;;;;;;4819764;29;20220;-84
2021/01/13 00:09:39;;;;;;;0.50;0.50;;;1.20;99.90;;;;;;4820507;29;20219;-85
2021/01/13 00:12:09;;;;;;;0.50;0.50;;;1.10;99.90;;;;;;4819741;29;20537;-84
2021/01/13 00:14:37;;;;;;;0.50;0.50;;;1.20;99.90;;;;;;4820565;29;20707;-83
2021/01/13 00:17:07;;;;;;;0.50;0.50;;;1.30;99.90;;;;;;4820675;29;20208;-83
2021/01/13 00:19:33;;;;;;;0.43;0.43;;;1.20;99.90;;;;;;4820302;29;20219;-83
2021/01/13 00:21:59;;;;;;;0.50;0.50;;;1.30;99.90;;;;;;4820599;29;20232;-84
2021/01/13 00:24:25;;;;;;;0.50;0.50;;;1.30;99.90;;;;;;4820259;29;20259;-84
2021/01/13 00:26:56;;;;;;;0.50;0.50;;;1.30;99.90;;;;;;4820842;29;20239;-83
2021/01/13 00:29:22;;;;;;;0.40;0.40;;;1.30;99.90;;;;;;4820299;29;20212;-83
2021/01/13 00:31:49;;;;;;;0.50;0.50;;;1.30;99.90;;;;;;4820431;29;20227;-84
2021/01/13 00:34:16;;;;;;;0.50;0.50;;;1.20;99.90;;;;;;4820557;29;20205;-84
2021/01/13 00:36:42;;;;;;;0.50;0.50;;;1.20;99.90;;;;;;4820099;29;20208;-84
2021/01/13 00:39:09;;;;;;;0.50;0.50;;;;;;;;;;4820224;29;20812;-84
2021/01/13 00:41:38;;;;;;;0.50;0.50;;;1.20;99.90;;;;;;4820249;29;20237;-84
2021/01/13 00:44:05;;;;;;;0.50;0.50;;;1.20;99.90;;;;;;4820137;29;20216;-84
2021/01/13 00:46:36;;;;;;;0.50;0.50;;;1.20;99.90;;;;;;4820124;29;20211;-85
2021/01/13 00:49:03;;;;;;;0.50;0.50;;;1.20;99.90;;;;;;4820049;29;20758;-85
2021/01/13 00:51:33;;;;;;;0.50;0.50;;;1.20;99.90;;;;;;4820092;29;20716;-84
2021/01/13 00:53:59;;;;;;;0.50;0.50;;;1.20;99.90;;;;;;4820199;29;20259;-84
2021/01/13 00:56:26;;;;;;;0.50;0.50;;;1.20;99.90;;;;;;4819840;29;20289;-85
2021/01/13 00:58:52;;;;;;;0.50;0.50;;;1.20;99.90;;;;;;4819825;29;20211;-82
2021/01/13 01:01:18;;;;;;;0.50;0.50;;;1.20;99.90;;;;;;4819679;29;20232;-82
2021/01/13 01:03:44;;;;;;;0.50;0.50;;;1.20;99.90;;;;;;4819723;29;20212;-84
2021/01/13 01:06:12;;;;;;;0.50;0.50;;;1.20;99.90;;;;;;4819915;29;20223;-84
2021/01/13 01:08:38;;;;;;;0.40;0.40;;;1.20;99.90;;;;;;4819780;29;20215;-85
2021/01/13 01:11:05;;;;;;;0.40;0.40;;;1.20;99.90;;;;;;4819787;29;20255;-84
2021/01/13 01:13:31;;;;;;;0.50;0.50;;;1.20;99.90;;;;;;4820024;29;20641;-84
2021/01/13 01:15:57;;;;;;;0.50;0.50;;;1.30;99.90;;;;;;4819922;29;20217;-84
2021/01/13 01:18:24;;;;;;;0.50;0.50;;;1.30;99.90;;;;;;4819545;29;20249;-85
2021/01/13 01:20:50;;;;;;;0.50;0.50;;;1.30;99.90;;;;;;4819520;29;20610;-85
2021/01/13 01:23:17;;;;;;;0.50;0.50;;;1.40;99.90;;;;;;4819356;29;20240;-85
2021/01/13 01:25:46;;;;;;;0.50;0.50;;;1.40;99.90;;;;;;4819474;29;20212;-85
2021/01/13 01:28:12;;;;;;;0.47;0.47;;;1.40;99.90;;;;;;4819591;29;20696;-85
2021/01/13 01:30:38;;;;;;;0.50;0.50;;;1.20;99.90;;;;;;4819483;29;20212;-85
2021/01/13 01:33:04;;;;;;;0.50;0.50;;;1.30;99.90;;;;;;4819348;29;20203;-85
2021/01/13 01:35:30;;;;;;;0.50;0.50;;;1.30;99.90;;;;;;4819456;29;20812;-85
2021/01/13 01:37:56;;;;;;;0.50;0.50;;;1.40;99.90;;;;;;4819700;29;20247;-85
2021/01/13 01:40:23;;;;;;;0.50;0.50;;;1.30;99.90;;;;;;4819336;29;20212;-85
2021/01/13 01:42:51;;;;;;;0.50;0.50;;;1.20;99.90;;;;;;4819515;29;20278;-86
2021/01/13 01:45:19;;;;;;;0.50;0.50;;;1.30;99.90;;;;;;4819479;29;20251;-85
2021/01/13 01:48:21;;;;;;;0.50;0.50;;;1.30;99.90;;;;;;4819072;29;20211;-84
2021/01/13 01:50:48;;;;;;;0.50;0.50;;;1.20;99.90;;;;;;4819020;29;20526;-84
2021/01/13 01:53:37;;;;;;;0.50;0.50;;;1.20;99.90;;;;;;4819301;29;20582;-84
2021/01/13 01:56:19;;;;;;;0.50;0.50;;;1.10;99.90;;;;;;4819383;29;20208;-84
2021/01/13 01:58:48;;;;;;;0.50;0.50;;;1.10;99.90;;;;;;4819309;29;20212;-83
2021/01/13 02:01:18;;;;;;;0.50;0.50;;;1.00;99.90;;;;;;4819003;29;20228;-84
2021/01/13 02:03:47;;;;;;;0.50;0.50;;;1.00;99.90;;;;;;4819015;29;20220;-84
2021/01/13 02:06:16;;;;;;;0.40;0.40;;;1.00;99.90;;;;;;4819063;29;20241;-84
2021/01/13 02:08:43;;;;;;;0.50;0.50;;;1.00;99.90;;;;;;4818987;29;20247;-84
2021/01/13 02:11:14;;;;;;;0.50;0.50;;;1.00;99.90;;;;;;4818997;29;20372;-84
2021/01/13 02:13:41;;;;;;;0.50;0.50;;;1.00;99.90;;;;;;4819075;29;20223;-84
2021/01/13 02:16:08;;;;;;;0.50;0.50;;;1.10;99.90;;;;;;4819091;29;20212;-84
2021/01/13 02:18:36;;;;;;;0.50;0.50;;;1.10;99.90;;;;;;4818921;29;20636;-85
2021/01/13 02:21:04;;;;;;;0.50;0.50;;;1.00;99.90;;;;;;4818859;29;20233;-83
2021/01/13 02:23:32;;;;;;;0.50;0.50;;;1.10;99.90;;;;;;4818568;29;21091;-84
2021/01/13 02:26:44;;;;;;;0.50;0.50;;;1.10;99.90;;;;;;4819003;29;20216;-84
2021/01/13 02:29:24;;;;;;;0.40;0.40;;;1.60;99.90;;;;;;4818763;29;20432;-84
2021/01/13 02:32:00;;;;;;;0.57;0.57;;;1.10;99.90;;;;;;4818826;29;20215;-85
2021/01/13 02:34:41;;;;;;;0.50;0.50;;;1.20;99.90;;;;;;4819249;29;20220;-83
2021/01/13 02:37:41;;;;;;;0.50;0.50;;;1.10;99.90;;;;;;4822341;29;20208;-84
2021/01/13 02:40:10;;;;;;;0.50;0.50;;;1.10;99.90;;;;;;4822356;29;20265;-85
2021/01/13 02:42:38;;;;;;;0.50;0.50;;;1.10;99.90;;;;;;4821958;29;20289;-84
2021/01/13 02:45:10;;;;;;;0.50;0.50;;;1.50;99.90;;;;;;4822075;29;20223;-84
2021/01/13 02:48:11;;;;;;;0.50;0.50;;;1.10;99.90;;;;;;4821981;29;20212;-84
2021/01/13 02:50:46;;;;;;;0.50;0.50;;;1.10;99.90;;;;;;4821990;29;20248;-85
2021/01/13 02:53:46;;;;;;;0.50;0.50;;;1.00;99.90;;;;;;4821998;29;20276;-84
2021/01/13 02:56:24;;;;;;;0.50;0.50;;;1.00;99.90;;;;;;4821957;29;20219;-84
2021/01/13 02:59:06;;;;;;;0.47;0.47;;;1.00;99.90;;;;;;4821721;29;20227;-84
2021/01/13 03:01:37;;;;;;;0.50;0.50;;;3.10;99.90;;;;;;4821660;29;20397;-84
2021/01/13 03:04:04;;;;;;;0.50;0.50;;;1.00;99.90;;;;;;4822142;29;20212;-85
2021/01/13 03:06:32;;;;;;;0.50;0.50;;;1.00;99.90;;;;;;4821615;29;20749;-85
2021/01/13 03:09:03;;;;;;;0.50;0.50;;;1.00;99.90;;;;;;4821701;29;20216;-85
2021/01/13 03:11:30;;;;;;;0.43;0.43;;;1.00;99.90;;;;;;4821599;29;20212;-84
2021/01/13 03:14:04;;;;;;;0.50;0.50;;;1.00;99.90;;;;;;4821674;29;20642;-83
2021/01/13 03:16:34;;;;;;;0.50;0.50;;;1.00;99.90;;;;;;4821573;29;20208;-83
2021/01/13 03:19:05;;;;;;;0.50;0.50;;;1.00;99.90;;;;;;4821520;29;20504;-83
2021/01/13 03:21:42;;;;;;;0.50;0.50;;;0.90;99.90;;;;;;4821346;29;20228;-84
2021/01/13 03:24:14;;;;;;;0.50;0.50;;;1.00;99.90;;;;;;4821412;29;20697;-85
2021/01/13 03:26:46;;;;;;;0.50;0.50;;;0.80;99.90;;;;;;4821396;29;20220;-84
2021/01/13 03:29:22;;;;;;;0.50;0.50;;;1.00;99.90;;;;;;4821554;29;20208;-85
2021/01/13 03:32:06;;;;;;;0.50;0.50;;;1.00;99.90;;;;;;4821258;29;20208;-84
2021/01/13 03:34:40;;;;;;;0.50;0.50;;;1.00;99.90;;;;;;4821239;29;20290;-83
2021/01/13 03:37:16;;;;;;;0.50;0.50;;;1.10;99.90;;;;;;4821359;29;20212;-83
2021/01/13 03:39:43;;;;;;;0.50;0.50;;;1.10;99.90;;;;;;4821151;29;20284;-83
2021/01/13 03:42:12;;;;;;;0.50;0.50;;;1.10;99.90;;;;;;4821190;29;20255;-84
2021/01/13 03:44:40;;;;;;;0.40;0.40;;;1.10;99.90;;;;;;4821089;29;20212;-83
2021/01/13 03:47:33;;;;;;;0.50;0.50;;;1.10;99.90;;;;;;4819937;29;20219;-84
2021/01/13 03:50:13;;;;;;;0.50;0.50;;;1.10;99.90;;;;;;4821166;29;20236;-83
2021/01/13 03:52:45;;;;;;;0.50;0.50;;;1.20;99.90;;;;;;4821002;29;20212;-84
2021/01/13 03:55:12;;;;;;;0.50;0.50;;;1.20;99.90;;;;;;4821072;29;20212;-83
2021/01/13 03:58:06;;;;;;;0.47;0.47;;;1.20;99.90;;;;;;4821036;29;20212;-84
2021/01/13 04:00:59;;;;;;;0.50;0.50;;;1.30;99.90;;;;;;4820873;29;20223;-84
2021/01/13 04:03:27;;;;;;;0.50;0.50;;;1.30;99.90;;;;;;4820783;29;20210;-84
2021/01/13 04:06:04;;;;;;;0.50;0.50;;;1.30;99.90;;;;;;4820906;29;20223;-84
2021/01/13 04:08:38;;;;;;;0.50;0.50;;;1.30;99.90;;;;;;4820844;29;20931;-84
2021/01/13 04:11:08;;;;;;;0.50;0.50;;;1.30;99.90;;;;;;4820636;29;20208;-84
2021/01/13 04:13:41;;;;;;;0.50;0.50;;;1.30;99.90;;;;;;4820616;29;20212;-84
2021/01/13 04:16:08;;;;;;;0.50;0.50;;;1.30;99.90;;;;;;4820715;29;20273;-84
2021/01/13 04:18:35;;;;;;;0.50;0.50;;;1.30;99.90;;;;;;4820511;29;20212;-85
2021/01/13 04:21:04;;;;;;;0.47;0.47;;;1.40;99.90;;;;;;4820366;29;20212;-84
2021/01/13 04:23:30;;;;;;;0.50;0.50;;;1.30;99.90;;;;;;4820299;29;20240;-84
2021/01/13 04:25:58;;;;;;;0.45;0.45;;;1.30;99.90;;;;;;4820512;29;20219;-84
2021/01/13 04:28:24;;;;;;;0.50;0.50;;;1.20;99.90;;;;;;4820496;29;20212;-84
2021/01/13 04:30:51;;;;;;;0.50;0.50;;;1.10;99.90;;;;;;4820274;29;20228;-83
2021/01/13 04:33:18;;;;;;;0.40;0.40;;;1.00;99.90;;;;;;4820336;29;20208;-84
2021/01/13 04:35:44;;;;;;;0.50;0.50;;;1.00;99.90;;;;;;4820308;29;20219;-84
2021/01/13 04:38:17;;;;;;;0.40;0.40;;;0.10;99.90;;;;;;4820332;29;20227;-83
2021/01/13 04:40:49;;;;;;;0.40;0.40;;;1.10;99.90;;;;;;4820206;29;20212;-85
2021/01/13 04:43:20;;;;;;;0.50;0.50;;;0.90;99.90;;;;;;4820274;29;20204;-84
2021/01/13 04:45:47;;;;;;;0.47;0.47;;;1.60;99.90;;;;;;4820233;29;20216;-84
2021/01/13 04:48:15;;;;;;;0.50;0.50;;;1.20;99.90;;;;;;4820162;29;20225;-84
2021/01/13 04:50:44;;;;;;;0.50;0.50;;;1.20;99.90;;;;;;4820224;29;20578;-85
2021/01/13 04:53:12;;;;;;;0.50;0.50;;;1.20;99.90;;;;;;4820077;29;20244;-85
2021/01/13 04:55:47;;;;;;;0.50;0.50;;;1.30;99.90;;;;;;4819970;29;20213;-83
2021/01/13 04:59:09;;;;;;;0.40;0.40;;;1.20;99.90;;;;;;4819652;29;20216;-84
2021/01/13 05:02:04;;;;;;;0.50;0.50;;;1.30;99.90;;;;;;4819815;29;20476;-83
2021/01/13 05:04:58;;;;;;;0.45;0.45;;;1.30;99.90;;;;;;4820107;29;20251;-84
2021/01/13 05:07:35;;;;;;;0.50;0.50;;;1.20;99.90;;;;;;4819916;29;20212;-84
2021/01/13 05:10:06;;;;;;;0.50;0.50;;;1.20;99.90;;;;;;4819787;29;20209;-80
2021/01/13 05:12:48;;;;;;;0.43;0.43;;;1.10;99.90;;;;;;4820152;29;20200;-80
2021/01/13 05:15:25;;;;;;;0.40;0.40;;;1.10;99.90;;;;;;4819790;29;20637;-81
2021/01/13 05:18:09;;;;;;;0.40;0.40;;;1.10;99.90;;;;;;4819649;29;20218;-80
2021/01/13 05:20:40;;;;;;;0.40;0.40;;;1.20;99.90;;;;;;4819700;29;20303;-80
2021/01/13 05:23:08;;;;;;;0.50;0.50;;;1.20;99.90;;;;;;4819354;29;20747;-83
2021/01/13 05:25:43;;;;;;;0.40;0.40;;;1.40;99.90;;;;;;4819493;29;20216;-83
2021/01/13 05:28:12;;;;;;;0.50;0.50;;;1.30;99.90;;;;;;4819756;29;20285;-84
2021/01/13 05:30:40;;;;;;;0.47;0.47;;;1.30;99.90;;;;;;4819504;29;20235;-89
2021/01/13 05:33:10;;;;;;;0.45;0.45;;;1.30;99.90;;;;;;4820007;29;20215;-89
2021/01/13 05:35:46;;;;;;;0.50;0.50;;;1.40;99.90;;;;;;4819778;29;20212;-84
2021/01/13 05:38:16;;;;;;;0.40;0.40;;;1.40;99.90;;;;;;4819615;29;20212;-88
2021/01/13 05:40:47;;;;;;;0.40;0.40;;;1.40;99.90;;;;;;4821131;29;20359;-85
2021/01/13 05:43:15;;;;;;;0.50;0.50;;;1.40;99.90;;;;;;4819648;29;20232;-82
2021/01/13 05:45:42;;;;;;;0.47;0.47;;;1.30;99.90;;;;;;4819549;29;20208;-82
2021/01/13 05:48:16;;;;;;;0.40;0.40;;;1.40;99.90;;;;;;4819253;29;20273;-82
2021/01/13 05:50:43;;;;;;;0.40;0.40;;;1.30;99.90;;;;;;4819757;29;20216;-81
2021/01/13 05:53:10;;;;;;;0.40;0.40;;;1.40;99.90;;;;;;4819459;29;20212;-82
2021/01/13 05:55:44;;;;;;;0.40;0.40;;;1.40;99.90;;;;;;4819320;29;20223;-81
2021/01/13 05:58:12;;;;;;;0.47;0.47;;;1.40;99.90;;;;;;4819329;29;20223;-82
2021/01/13 06:00:38;;;;;;;0.40;0.40;;;1.40;99.90;;;;;;4819342;29;20694;-80
2021/01/13 06:03:06;;;;;;;0.50;0.50;;;1.40;99.90;;;;;;4819049;29;20410;-80
2021/01/13 06:05:34;;;;;;;0.47;0.47;;;1.40;99.90;;;;;;4819151;29;20212;-80
2021/01/13 06:08:02;;;;;;;0.40;0.40;;;1.40;99.90;;;;;;4819233;29;20216;-80
2021/01/13 06:10:31;;;;;;;0.50;0.50;;;1.40;99.90;;;;;;4821344;29;20212;-80
2021/01/13 06:13:00;;;;;;;0.40;0.40;;;1.30;99.90;;;;;;4822766;29;20399;-81
2021/01/13 06:15:28;;;;;;;0.50;0.50;;;1.80;99.90;;;;;;4822945;29;20267;-82
2021/01/13 06:17:57;;;;;;;0.50;0.50;;;1.40;99.90;;;;;;4822709;29;20269;-82
2021/01/13 06:20:24;;;;;;;0.50;0.50;;;1.40;99.90;;;;;;4822889;29;20219;-82
2021/01/13 06:22:51;;;;;;;0.40;0.40;;;1.30;99.90;;;;;;4822243;29;20309;-80
2021/01/13 06:25:24;;;;;;;0.47;0.47;;;1.30;99.90;;;;;;4822804;29;20208;-81
2021/01/13 06:28:05;;;;;;;0.40;0.40;;;1.30;99.90;;;;;;4822694;29;20227;-80
2021/01/13 06:30:34;;;;;;;0.50;0.50;;;1.20;99.90;;;;;;4822764;29;20316;-81
2021/01/13 06:36:37;;;;;;;0.40;0.40;;;1.30;99.90;;;;;;4820741;29;20188;-83
2021/01/13 06:39:06;;;;;;;0.47;0.47;;;1.20;99.90;;;;;;4820639;29;20216;-80
2021/01/13 06:41:45;;;;;;;0.50;0.50;;;1.20;99.90;;;;;;4822243;29;20240;-80
2021/01/13 06:44:11;;;;;;;0.40;0.40;;;1.70;99.90;;;;;;4822394;29;20208;-80
2021/01/13 06:46:38;;;;;;;0.50;0.50;;;1.20;99.90;;;;;;4822165;29;20277;-80
2021/01/13 06:49:12;;;;;;;0.40;0.40;;;1.20;99.90;;;;;;4822130;29;20673;-80
2021/01/13 06:51:42;;;;;;;0.50;0.50;;;1.20;99.90;;;;;;4799254;29;20249;-79
2021/01/13 06:54:10;;;;;;;0.40;0.40;;;1.20;99.90;;;;;;4823256;29;20251;-80
2021/01/13 06:56:45;;;;;;;0.47;0.47;;;1.20;99.90;;;;;;4841317;29;20284;-80
2021/01/13 06:59:12;;;;;;;0.40;0.40;;;1.20;99.90;;;;;;4835217;29;20494;-80
2021/01/13 07:01:48;;;;;;;0.40;0.40;;;1.20;99.90;;;;;;4836312;29;20266;-80
2021/01/13 07:04:14;;;;;;;0.40;0.40;;;1.20;99.90;;;;;;4838459;29;20218;-80
2021/01/13 07:06:55;;;;;;;0.40;0.40;;;1.20;99.90;;;;;;4834650;29;20516;-79
2021/01/13 07:09:21;;;;;;;0.40;0.40;;;1.20;99.90;;;;;;4835194;29;20284;-79
2021/01/13 07:11:50;;;;;;;0.40;0.40;;;1.20;99.90;;;;;;4838142;29;20214;-79
2021/01/13 07:14:17;;;;;;;0.40;0.40;;;1.30;99.90;;;;;;4835896;29;20243;-80
2021/01/13 07:16:44;;;;;;;0.40;0.40;;;1.30;99.90;;;;;;4838767;29;20244;-80
2021/01/13 07:19:11;;;;;;;0.40;0.40;;;1.30;99.90;;;;;;4837969;29;20223;-80
2021/01/13 07:21:39;;;;;;;0.40;0.40;;;1.30;99.90;;;;;;4838271;29;20251;-80
2021/01/13 07:24:13;;;;;;;0.40;0.40;;;1.30;99.90;;;;;;4844936;29;20269;-79
2021/01/13 07:26:40;;;;;;;0.40;0.40;;;1.40;99.90;;;;;;4824311;29;20216;-80
2021/01/13 07:29:07;;;;;;;0.40;0.40;;;1.30;99.90;;;;;;4836751;29;20443;-79
2021/01/13 07:31:33;;;;;;;0.50;0.50;;;1.40;99.90;;;;;;4836122;29;20262;-79
2021/01/13 07:34:05;;;;;;;0.50;0.50;;;1.40;99.90;;;;;;4838171;29;20216;-81
2021/01/13 07:36:36;;;;;;;0.40;0.40;;;1.40;99.90;;;;;;4836911;29;20251;-81
2021/01/13 07:39:05;;;;;;;0.40;0.40;;;1.40;99.90;;;;;;4831497;29;20204;-81
2021/01/13 07:42:11;;;;;;;0.40;0.40;;;1.40;99.90;;;;;;4838895;29;20235;-81
2021/01/13 07:44:42;;;;;;;0.50;0.50;;;1.40;99.90;;;;;;4837342;29;20695;-80
2021/01/13 07:47:27;;;;;;;0.50;0.50;;;1.40;99.90;;;;;;4837021;29;20300;-80
2021/01/13 07:50:13;;;;;;;0.40;0.40;;;1.40;99.90;;;;;;4838879;29;20592;-82
2021/01/13 07:52:44;;;;;;;0.50;0.50;;;1.40;99.90;;;;;;4831575;29;20219;-80
2021/01/13 07:55:16;;;;;;;0.40;0.40;;;1.40;99.90;;;;;;4828812;29;20247;-85
2021/01/13 07:57:48;;;;;;;0.50;0.50;;;1.50;99.90;;;;;;4838490;29;20212;-80
2021/01/13 08:00:24;;;;;;;0.50;0.50;;;1.50;99.90;;;;;;4838590;29;20250;-79
2021/01/13 08:03:37;;;;;;;0.50;0.50;;;1.80;99.90;;;;;;4838354;29;20718;-80
2021/01/13 08:06:29;;;;;;;0.50;0.50;;;1.60;99.90;;;;;;4838478;29;20649;-81
2021/01/13 08:09:10;;;;;;;0.40;0.40;;;1.60;99.90;;;;;;4826721;29;20212;-79
2021/01/13 08:12:34;;;;;;;0.50;0.50;;;1.60;99.90;;;;;;4838468;29;20212;-81
2021/01/13 08:15:42;;;;;;;0.40;0.40;;;1.60;99.90;;;;;;4826861;29;20212;-81
2021/01/13 08:18:59;;;;;;;0.40;0.40;;;1.70;99.90;;;;;;4835299;29;20212;-80
2021/01/13 08:21:31;;;;;;;0.40;0.40;;;1.70;99.90;;;;;;4838018;29;20534;-83
2021/01/13 08:24:03;;;;;;;0.40;0.40;;;1.70;99.90;;;;;;4831964;29;20261;-86
2021/01/13 08:26:31;;;;;;;0.40;0.40;;;1.80;99.90;;;;;;4830863;29;20208;-85
2021/01/13 08:29:01;;;;;;;0.50;0.50;;;1.80;99.90;;;;;;4828593;29;20683;-85
2021/01/13 08:31:28;;;;;;;0.50;0.50;;;1.80;99.90;;;;;;4828633;29;20208;-85
2021/01/13 08:34:06;;;;;;;0.45;0.45;;;1.80;99.90;;;;;;4829342;29;20208;-85
2021/01/13 08:36:33;;;;;;;0.50;0.50;;;1.80;99.90;;;;;;4829627;29;20307;-86
2021/01/13 08:39:12;;;;;;;0.50;0.50;;;1.80;99.90;;;;;;4831524;29;20216;-84
2021/01/13 08:41:41;;;;;;;0.45;0.45;;;1.80;99.90;;;;;;4838167;29;20227;-87
2021/01/13 08:44:10;;;;;;;0.50;0.50;;;1.70;99.90;;;;;;4835619;29;20313;-86
2021/01/13 08:46:48;;;;;;;0.50;0.50;;;1.80;99.90;;;;;;4832648;29;20579;-82
2021/01/13 08:49:28;;;;;;;0.40;0.40;;;1.70;99.90;;;;;;4829878;29;20714;-83
2021/01/13 08:52:26;;;;;;;0.50;0.50;;;1.70;99.90;;;;;;4828743;29;20212;-85
2021/01/13 08:55:15;;;;;;;0.43;0.43;;;1.90;99.90;;;;;;4788676;29;20209;-83
2021/01/13 08:57:52;;;;;;;0.45;0.45;;;1.80;99.90;;;;;;4830043;29;20315;-85
2021/01/13 09:00:20;;;;;;;0.40;0.40;;;1.80;99.90;;;;;;4831450;29;20223;-83
2021/01/13 09:03:14;;;;;;;0.50;0.50;;;1.80;99.90;;;;;;4829184;29;20318;-83
2021/01/13 09:05:42;;;;;;;0.47;0.47;;;1.90;99.90;;;;;;4825658;29;20212;-82
2021/01/13 09:08:10;;;;;;;0.50;0.50;;;1.90;99.90;;;;;;4831522;29;20208;-82
2021/01/13 09:10:52;;;;;;;0.50;0.50;;;2.70;99.90;;;;;;4830173;29;20264;-84
2021/01/13 09:13:41;;;;;;;0.43;0.43;;;2.00;99.90;;;;;;4828115;29;20209;-85
2021/01/13 09:16:33;;;;;;;0.50;0.50;;;2.00;99.90;;;;;;4828588;29;20212;-84
2021/01/13 09:19:02;;;;;;;0.40;0.40;;;1.90;99.90;;;;;;4831683;29;20284;-85
2021/01/13 09:21:33;;;;;;;0.40;0.40;;;2.10;99.90;;;;;;4830068;29;20217;-85
2021/01/13 09:24:00;;;;;;;0.50;0.50;;;2.10;99.90;;;;;;4827848;29;20578;-84
2021/01/13 09:26:31;;;;;;;0.40;0.40;;;2.10;99.90;;;;;;4832213;29;20219;-83
2021/01/13 09:29:01;;;;;;;0.50;0.50;;;2.30;99.90;;;;;;4832348;29;20287;-86
2021/01/13 09:31:27;;;;;;;0.50;0.50;;;;;;;;;;4833495;29;20634;-85
2021/01/13 09:33:55;;;;;;;0.40;0.40;;;2.00;99.90;;;;;;4830758;29;20208;-86
2021/01/13 09:36:21;;;;;;;0.50;0.50;;;2.00;99.90;;;;;;4829239;29;20800;-85
2021/01/13 09:38:50;;;;;;;0.50;0.50;;;2.60;99.90;;;;;;4831393;29;20240;-88
2021/01/13 09:41:24;;;;;;;0.50;0.50;;;2.00;99.90;;;;;;4830768;29;20207;-87
2021/01/13 09:44:07;;;;;;;0.50;0.50;;;2.20;99.90;;;;;;4823598;29;20554;-87
2021/01/13 09:46:38;;;;;;;0.43;0.43;;;2.20;99.90;;;;;;4830500;29;20207;-89
2021/01/13 09:49:07;;;;;;;0.50;0.50;;;2.30;99.90;;;;;;4831126;29;20219;-89
2021/01/13 09:51:35;;;;;;;0.50;0.50;;;2.20;99.90;;;;;;4828279;29;20692;-89
2021/01/13 09:54:04;;;;;;;0.40;0.40;;;1.50;99.90;;;;;;4826898;29;20398;-89
2021/01/13 09:56:31;;;;;;;0.50;0.50;;;2.30;99.90;;;;;;4830991;29;20271;-87
2021/01/13 09:59:00;;;;;;;0.50;0.50;;;2.00;99.90;;;;;;4830566;29;20228;-88
2021/01/13 10:01:29;;;;;;;0.50;0.50;;;2.40;99.90;;;;;;4829301;29;20212;-87
2021/01/13 10:03:57;;;;;;;0.50;0.50;;;3.60;99.90;;;;;;4828345;29;20233;-87
2021/01/13 10:06:27;;;;;;;0.50;0.50;;;2.40;99.90;;;;;;4830499;29;20243;-87
2021/01/13 10:08:55;;;;;;;0.50;0.50;;;3.40;99.90;;;;;;4831217;29;20207;-86
2021/01/13 10:11:25;;;;;;;0.50;0.50;;;2.40;99.90;;;;;;4828538;29;20204;-86
2021/01/13 10:13:57;;;;;;;0.40;0.40;;;2.40;99.90;;;;;;4829028;29;20691;-87
2021/01/13 10:16:24;;;;;;;0.50;0.50;;;2.50;99.90;;;;;;4829674;29;20216;-86
2021/01/13 10:18:52;;;;;;;0.50;0.50;;;2.50;99.90;;;;;;4831136;29;20215;-87
2021/01/13 10:21:20;;;;;;;0.50;0.50;;;2.50;99.90;;;;;;4828616;29;20212;-87
2021/01/13 10:23:54;;;;;;;0.50;0.50;;;2.60;99.90;;;;;;4830152;29;20276;-91
2021/01/13 10:26:24;;;;;;;0.50;0.50;;;3.30;99.90;;;;;;4835704;29;20613;-86
2021/01/13 10:28:57;;;;;;;0.50;0.50;;;2.60;99.90;;;;;;4830988;29;20252;-87
2021/01/13 10:31:24;;;;;;;0.50;0.50;;;2.60;99.90;;;;;;4828691;29;20212;-87
2021/01/13 10:33:55;;;;;;;0.50;0.50;;;2.60;99.90;;;;;;4829160;29;20598;-88
2021/01/13 10:36:41;;;;;;;0.50;0.50;;;1.80;99.90;;;;;;4828871;29;20446;-86
2021/01/13 10:39:14;;;;;;;0.50;0.50;;;2.70;99.90;;;;;;4827715;29;20207;-87
2021/01/13 10:41:41;;;;;;;0.50;0.50;;;2.40;99.90;;;;;;4827575;29;20215;-87
2021/01/13 10:44:11;;;;;;;0.40;0.40;;;2.80;99.90;;;;;;4828887;29;20272;-87
2021/01/13 10:46:49;;;;;;;0.50;0.50;;;3.60;99.90;;;;;;4830794;29;20222;-87
2021/01/13 10:49:20;;;;;;;0.50;0.50;;;3.00;99.90;;;;;;4829096;29;20217;-87
2021/01/13 10:51:49;;;;;;;0.50;0.50;;;3.00;99.90;;;;;;4828398;29;20596;-87
2021/01/13 10:54:21;;;;;;;0.50;0.50;;;3.00;99.90;;;;;;4829690;29;20216;-88
2021/01/13 10:56:54;;;;;;;0.50;0.50;;;3.00;99.90;;;;;;4832755;29;20215;-87
2021/01/13 10:59:20;;;;;;;0.50;0.50;;;3.10;99.90;;;;;;4834820;29;20222;-87
2021/01/13 11:01:49;;;;;;;0.50;0.50;;;3.10;99.90;;;;;;4838894;29;20232;-87
2021/01/13 11:04:44;;;;;;;0.50;0.50;;;3.00;99.90;;;;;;4838807;29;20212;-88
2021/01/13 11:07:13;;;;;;;0.50;0.50;;;3.10;99.90;;;;;;4830628;29;20717;-89
2021/01/13 11:09:41;;;;;;;0.40;0.40;;;3.10;99.90;;;;;;4832980;29;20708;-89
2021/01/13 11:12:13;;;;;;;0.50;0.50;;;3.10;99.90;;;;;;4831379;29;20212;-89
2021/01/13 11:14:46;;;;;;;0.50;0.50;;;3.90;99.90;;;;;;4834185;29;20220;-83
2021/01/13 11:17:14;;;;;;;0.50;0.50;;;4.30;99.90;;;;;;4838556;29;20277;-84
2021/01/13 11:19:43;;;;;;;0.50;0.50;;;3.60;99.90;;;;;;4838271;29;20249;-85
2021/01/13 11:22:10;;;;;;;0.50;0.50;;;3.50;99.90;;;;;;4835957;29;20223;-85
2021/01/13 11:24:40;;;;;;;0.50;0.50;;;3.50;99.90;;;;;;4838481;29;20676;-85
2021/01/13 11:27:10;;;;;;;0.50;0.50;;;3.50;99.90;;;;;;4838588;29;20215;-84
2021/01/13 11:29:38;;;;;;;0.50;0.50;;;3.50;99.90;;;;;;4837915;29;20747;-83
2021/01/13 11:32:07;;;;;;;0.50;0.50;;;3.50;99.90;;;;;;4837763;29;20227;-82
2021/01/13 11:34:34;;;;;;;0.50;0.50;;;3.50;99.90;;;;;;4823967;29;20243;-83
2021/01/13 11:37:39;;;;;;;0.50;0.50;;;4.30;99.90;;;;;;4837834;29;20220;-84
2021/01/13 11:40:31;;;;;;;0.50;0.50;;;3.50;99.90;;;;;;4838451;29;20215;-86
2021/01/13 11:43:30;;;;;;;0.50;0.50;;;3.60;99.90;;;;;;4826582;29;20255;-85
2021/01/13 11:46:11;;;;;;;0.50;0.50;;;3.70;99.90;;;;;;4835409;29;20618;-84
2021/01/13 11:49:15;;;;;;;0.50;0.50;;;4.10;99.90;;;;;;4832661;29;20587;-85
2021/01/13 11:51:43;;;;;;;0.50;0.50;;;3.50;99.90;;;;;;4837617;29;20219;-84
2021/01/13 11:54:10;;;;;;;0.50;0.50;;;3.70;99.90;;;;;;4837257;29;20276;-84
2021/01/13 11:56:37;;;;;;;0.50;0.50;;;3.80;99.90;;;;;;4828073;29;20587;-85
2021/01/13 11:59:04;;;;;;;0.50;0.50;;;3.90;99.90;;;;;;4831369;29;20216;-85
2021/01/13 12:01:33;;;;;;;0.50;0.50;;;4.10;99.90;;;;;;4834217;29;20247;-84
2021/01/13 12:04:01;;;;;;;0.50;0.50;;;4.40;99.90;;;;;;4837789;29;20208;-85
2021/01/13 12:06:27;;;;;;;0.50;0.50;;;4.30;99.90;;;;;;4837334;29;20220;-85
2021/01/13 12:08:53;;;;;;;0.50;0.50;;;4.30;99.90;;;;;;4837606;29;20235;-87
2021/01/13 12:11:20;;;;;;;0.50;0.50;;;4.20;99.90;;;;;;4838323;29;20212;-84
2021/01/13 12:13:47;;;;;;;0.50;0.50;;;4.00;99.90;;;;;;4837869;29;20208;-85
2021/01/13 12:16:17;;;;;;;0.55;0.55;;;3.90;99.90;;;;;;4837528;29;20420;-84
2021/01/13 12:18:47;;;;;;;0.50;0.50;;;3.90;99.90;;;;;;4838069;29;20239;-85
2021/01/13 12:21:28;;;;;;;0.50;0.50;;;3.90;99.90;;;;;;4837859;29;20215;-84
2021/01/13 12:23:55;;;;;;;0.60;0.60;;;4.00;99.90;;;;;;4837653;29;20375;-83
2021/01/13 12:26:23;;;;;;;0.50;0.50;;;4.10;99.90;;;;;;4837870;29;20212;-83
2021/01/13 12:28:51;;;;;;;0.50;0.50;;;4.00;99.90;;;;;;4838038;29;20238;-84
2021/01/13 12:31:18;;;;;;;0.50;0.50;;;4.00;99.90;;;;;;4837429;29;20212;-83
2021/01/13 12:33:55;;;;;;;0.57;0.57;;;3.40;99.90;;;;;;4837667;29;20217;-87
2021/01/13 12:36:23;;;;;;;0.60;0.60;;;4.00;99.90;;;;;;4826494;29;20398;-85
2021/01/13 12:38:49;;;;;;;0.50;0.50;;;4.10;99.90;;;;;;4832249;29;20249;-86
2021/01/13 12:41:20;;;;;;;0.52;0.52;;;4.10;99.90;;;;;;4829759;29;20264;-84
2021/01/13 12:43:46;;;;;;;0.50;0.50;;;4.10;99.90;;;;;;4829399;29;20231;-84
2021/01/13 12:46:23;;;;;;;0.60;0.60;;;4.10;99.90;;;;;;4828635;29;20212;-84
2021/01/13 12:48:49;;;;;;;0.50;0.50;;;4.60;99.90;;;;;;4828952;29;20559;-84
2021/01/13 12:51:15;;;;;;;0.55;0.55;;;4.00;99.90;;;;;;4838605;29;20279;-91
2021/01/13 12:53:41;;;;;;;0.52;0.52;;;4.10;99.90;;;;;;4835896;29;20243;-83
2021/01/13 12:56:07;;;;;;;0.60;0.60;;;4.10;99.90;;;;;;4836107;29;20219;-83
2021/01/13 12:58:33;;;;;;;0.50;0.50;;;4.00;99.90;;;;;;4836991;29;20591;-82
2021/01/13 13:01:01;;;;;;;0.50;0.50;;;4.00;99.90;;;;;;4836685;29;20207;-85
2021/01/13 13:03:28;;;;;;;0.50;0.50;;;4.00;99.90;;;;;;4836563;29;20231;-84
2021/01/13 13:05:54;;;;;;;0.50;0.50;;;4.00;99.90;;;;;;4836862;29;20222;-84
2021/01/13 13:08:20;;;;;;;0.50;0.50;;;4.00;99.90;;;;;;4829159;29;20299;-88
2021/01/13 13:10:46;;;;;;;0.50;0.50;;;4.10;99.90;;;;;;4828671;29;20246;-85
2021/01/13 13:13:12;;;;;;;0.60;0.60;;;4.00;99.90;;;;;;4828650;29;20205;-85
2021/01/13 13:15:39;;;;;;;0.60;0.60;;;4.00;99.90;;;;;;4827164;29;20220;-84
2021/01/13 13:18:05;;;;;;;0.50;0.50;;;4.00;99.90;;;;;;4827790;29;20235;-86
2021/01/13 13:20:32;;;;;;;0.50;0.50;;;4.00;99.90;;;;;;4829495;29;20216;-84
2021/01/13 13:23:00;;;;;;;0.52;0.52;;;3.90;99.90;;;;;;4826400;29;20232;-86
2021/01/13 13:25:26;;;;;;;0.50;0.50;;;4.50;99.90;;;;;;4828403;29;20218;-85
2021/01/13 13:27:52;;;;;;;0.50;0.50;;;3.80;99.90;;;;;;4835887;29;20300;-83
2021/01/13 13:30:21;;;;;;;0.50;0.50;;;3.80;99.90;;;;;;4832068;29;20234;-86